sensor_id;sensor_type;location;lat;lon;timestamp;pressure;altitude;pressure_sealevel;temperature
29701;BMP280;57917;51.380;-0.176;2023-02-03T00:01:19;102556.91;;;10.36
29701;BMP280;57917;51.380;-0.176;2023-02-03T00:07:12;102571.03;;;10.19
29701;BMP280;57917;51.380;-0.176;2023-02-03T00:13:09;102554.50;;;10.35
29701;BMP280;57917;51.380;-0.176;2023-02-03T00:19:23;102568.56;;;10.35
29701;BMP280;57917;51.380;-0.176;2023-02-03T00:33:30;102561.97;;;10.38
29701;BMP280;57917;51.380;-0.176;2023-02-03T00:39:22;102579.31;;;10.52
29701;BMP280;57917;51.380;-0.176;2023-02-03T00:45:09;102566.50;;;10.37
29701;BMP280;57917;51.380;-0.176;2023-02-03T00:50:58;102576.66;;;10.52
29701;BMP280;57917;51.380;-0.176;2023-02-03T00:56:49;102548.47;;;10.69
29701;BMP280;57917;51.380;-0.176;2023-02-03T01:09:40;102529.25;;;10.85
29701;BMP280;57917;51.380;-0.176;2023-02-03T01:15:29;102523.63;;;10.93
29701;BMP280;57917;51.380;-0.176;2023-02-03T01:27:39;102534.44;;;11.03
29701;BMP280;57917;51.380;-0.176;2023-02-03T01:33:59;102537.56;;;11.11
29701;BMP280;57917;51.380;-0.176;2023-02-03T01:55:18;102540.91;;;10.95
29701;BMP280;57917;51.380;-0.176;2023-02-03T02:02:01;102531.91;;;11.08
29701;BMP280;57917;51.380;-0.176;2023-02-03T02:07:55;102528.31;;;11.02
29701;BMP280;57917;51.380;-0.176;2023-02-03T02:14:03;102546.50;;;10.76
29701;BMP280;57917;51.380;-0.176;2023-02-03T03:52:24;102549.41;;;10.86
29701;BMP280;57917;51.380;-0.176;2023-02-03T04:00:01;102550.22;;;10.75
29701;BMP280;57917;51.380;-0.176;2023-02-03T04:06:30;102552.53;;;10.94
29701;BMP280;57917;51.380;-0.176;2023-02-03T04:12:50;102561.16;;;10.90
29701;BMP280;57917;51.380;-0.176;2023-02-03T04:18:37;102551.81;;;10.99
29701;BMP280;57917;51.380;-0.176;2023-02-03T04:24:30;102549.53;;;10.79
29701;BMP280;57917;51.380;-0.176;2023-02-03T04:30:50;102549.50;;;10.68
29701;BMP280;57917;51.380;-0.176;2023-02-03T04:36:46;102551.25;;;10.74
29701;BMP280;57917;51.380;-0.176;2023-02-03T04:43:41;102554.63;;;10.81
29701;BMP280;57917;51.380;-0.176;2023-02-03T04:49:30;102558.38;;;10.62
29701;BMP280;57917;51.380;-0.176;2023-02-03T05:10:10;102558.38;;;10.62
29701;BMP280;57917;51.380;-0.176;2023-02-03T05:15:57;102594.53;;;10.68
29701;BMP280;57917;51.380;-0.176;2023-02-03T05:22:23;102618.84;;;10.65
29701;BMP280;57917;51.380;-0.176;2023-02-03T05:29:41;102621.25;;;10.66
29701;BMP280;57917;51.380;-0.176;2023-02-03T05:35:30;102617.72;;;10.72
29701;BMP280;57917;51.380;-0.176;2023-02-03T05:41:37;102638.84;;;10.49
29701;BMP280;57917;51.380;-0.176;2023-02-03T05:54:17;102619.56;;;10.72
29701;BMP280;57917;51.380;-0.176;2023-02-03T06:00:15;102631.00;;;10.54
29701;BMP280;57917;51.380;-0.176;2023-02-03T06:13:51;102623.44;;;10.69
29701;BMP280;57917;51.380;-0.176;2023-02-03T06:20:20;102610.59;;;10.73
29701;BMP280;57917;51.380;-0.176;2023-02-03T06:26:10;102625.19;;;10.64
29701;BMP280;57917;51.380;-0.176;2023-02-03T06:47:50;102635.53;;;10.36
29701;BMP280;57917;51.380;-0.176;2023-02-03T06:53:37;102633.88;;;10.53
29701;BMP280;57917;51.380;-0.176;2023-02-03T06:59:27;102657.38;;;10.49
29701;BMP280;57917;51.380;-0.176;2023-02-03T07:05:22;102664.28;;;10.21
29701;BMP280;57917;51.380;-0.176;2023-02-03T07:12:01;102678.88;;;10.41
29701;BMP280;57917;51.380;-0.176;2023-02-03T07:18:02;102695.97;;;10.57
29701;BMP280;57917;51.380;-0.176;2023-02-03T07:23:50;102694.16;;;10.69
29701;BMP280;57917;51.380;-0.176;2023-02-03T07:29:48;102696.94;;;10.44
29701;BMP280;57917;51.380;-0.176;2023-02-03T07:36:34;102685.88;;;10.65
29701;BMP280;57917;51.380;-0.176;2023-02-03T07:42:58;102701.72;;;10.54
29701;BMP280;57917;51.380;-0.176;2023-02-03T07:49:05;102709.94;;;10.64
29701;BMP280;57917;51.380;-0.176;2023-02-03T07:55:11;102702.50;;;10.72
29701;BMP280;57917;51.380;-0.176;2023-02-03T08:00:59;102699.63;;;10.74
29701;BMP280;57917;51.380;-0.176;2023-02-03T08:07:24;102711.09;;;10.68
29701;BMP280;57917;51.380;-0.176;2023-02-03T08:13:11;102705.56;;;10.87
29701;BMP280;57917;51.380;-0.176;2023-02-03T08:19:22;102692.88;;;10.89
29701;BMP280;57917;51.380;-0.176;2023-02-03T08:25:34;102696.63;;;10.82
29701;BMP280;57917;51.380;-0.176;2023-02-03T08:32:02;102717.50;;;10.78
29701;BMP280;57917;51.380;-0.176;2023-02-03T08:37:55;102737.50;;;10.74
29701;BMP280;57917;51.380;-0.176;2023-02-03T08:43:43;102737.38;;;10.99
29701;BMP280;57917;51.380;-0.176;2023-02-03T08:49:33;102746.03;;;11.06
29701;BMP280;57917;51.380;-0.176;2023-02-03T08:55:21;102740.94;;;10.93
29701;BMP280;57917;51.380;-0.176;2023-02-03T09:01:10;102730.81;;;11.13
29701;BMP280;57917;51.380;-0.176;2023-02-03T09:07:00;102747.47;;;11.43
29701;BMP280;57917;51.380;-0.176;2023-02-03T09:12:59;102724.88;;;11.87
29701;BMP280;57917;51.380;-0.176;2023-02-03T09:18:47;102728.00;;;11.95
29701;BMP280;57917;51.380;-0.176;2023-02-03T09:24:39;102749.44;;;11.94
29701;BMP280;57917;51.380;-0.176;2023-02-03T09:30:27;102742.81;;;12.19
29701;BMP280;57917;51.380;-0.176;2023-02-03T09:36:16;102753.94;;;12.44
29701;BMP280;57917;51.380;-0.176;2023-02-03T09:42:27;102771.31;;;12.63
29701;BMP280;57917;51.380;-0.176;2023-02-03T09:48:22;102769.56;;;12.69
29701;BMP280;57917;51.380;-0.176;2023-02-03T09:54:26;102779.31;;;12.63
29701;BMP280;57917;51.380;-0.176;2023-02-03T10:00:51;102777.06;;;13.33
29701;BMP280;57917;51.380;-0.176;2023-02-03T10:06:43;102764.81;;;13.16
29701;BMP280;57917;51.380;-0.176;2023-02-03T10:19:07;102826.41;;;12.96
29701;BMP280;57917;51.380;-0.176;2023-02-03T10:31:12;102840.69;;;13.68
29701;BMP280;57917;51.380;-0.176;2023-02-03T10:43:22;102838.72;;;13.96
29701;BMP280;57917;51.380;-0.176;2023-02-03T10:49:49;102832.66;;;14.01
29701;BMP280;57917;51.380;-0.176;2023-02-03T10:55:36;102837.38;;;14.15
29701;BMP280;57917;51.380;-0.176;2023-02-03T11:02:05;102852.13;;;14.23
29701;BMP280;57917;51.380;-0.176;2023-02-03T11:07:57;102844.22;;;14.28
29701;BMP280;57917;51.380;-0.176;2023-02-03T11:13:45;102841.84;;;14.31
29701;BMP280;57917;51.380;-0.176;2023-02-03T11:25:50;102834.31;;;14.50
29701;BMP280;57917;51.380;-0.176;2023-02-03T11:31:38;102855.25;;;14.36
29701;BMP280;57917;51.380;-0.176;2023-02-03T11:37:27;102844.00;;;14.13
29701;BMP280;57917;51.380;-0.176;2023-02-03T11:43:16;102841.47;;;14.23
29701;BMP280;57917;51.380;-0.176;2023-02-03T11:49:16;102848.28;;;14.57
29701;BMP280;57917;51.380;-0.176;2023-02-03T12:07:36;102844.41;;;14.43
29701;BMP280;57917;51.380;-0.176;2023-02-03T12:13:42;102846.31;;;14.26
29701;BMP280;57917;51.380;-0.176;2023-02-03T12:26:02;102847.91;;;14.27
29701;BMP280;57917;51.380;-0.176;2023-02-03T12:32:06;102851.31;;;14.44
29701;BMP280;57917;51.380;-0.176;2023-02-03T12:38:04;102839.09;;;14.70
29701;BMP280;57917;51.380;-0.176;2023-02-03T12:43:57;102844.97;;;14.45
29701;BMP280;57917;51.380;-0.176;2023-02-03T12:50:05;102826.72;;;14.37
29701;BMP280;57917;51.380;-0.176;2023-02-03T12:56:00;102837.59;;;14.30
29701;BMP280;57917;51.380;-0.176;2023-02-03T13:01:59;102840.97;;;14.26
29701;BMP280;57917;51.380;-0.176;2023-02-03T13:07:54;102849.38;;;14.34
29701;BMP280;57917;51.380;-0.176;2023-02-03T13:13:55;102837.09;;;14.55
29701;BMP280;57917;51.380;-0.176;2023-02-03T13:19:48;102845.25;;;14.27
29701;BMP280;57917;51.380;-0.176;2023-02-03T13:43:18;102842.28;;;14.45
29701;BMP280;57917;51.380;-0.176;2023-02-03T13:49:27;102842.81;;;14.69
29701;BMP280;57917;51.380;-0.176;2023-02-03T14:07:37;102864.25;;;14.30
29701;BMP280;57917;51.380;-0.176;2023-02-03T14:13:24;102855.22;;;14.58
29701;BMP280;57917;51.380;-0.176;2023-02-03T14:25:07;102848.03;;;14.37
29701;BMP280;57917;51.380;-0.176;2023-02-03T14:36:52;102858.38;;;14.12
29701;BMP280;57917;51.380;-0.176;2023-02-03T14:49:10;102853.41;;;13.99
29701;BMP280;57917;51.380;-0.176;2023-02-03T14:55:22;102859.47;;;13.94
29701;BMP280;57917;51.380;-0.176;2023-02-03T15:13:26;102881.06;;;13.98
29701;BMP280;57917;51.380;-0.176;2023-02-03T15:19:18;102877.59;;;13.97
29701;BMP280;57917;51.380;-0.176;2023-02-03T15:25:16;102886.44;;;13.65
29701;BMP280;57917;51.380;-0.176;2023-02-03T15:31:24;102885.19;;;13.56
29701;BMP280;57917;51.380;-0.176;2023-02-03T15:37:40;102900.81;;;13.64
29701;BMP280;57917;51.380;-0.176;2023-02-03T15:44:05;102906.00;;;13.59
29701;BMP280;57917;51.380;-0.176;2023-02-03T15:56:56;102918.28;;;13.60
29701;BMP280;57917;51.380;-0.176;2023-02-03T16:03:25;102925.16;;;13.72
29701;BMP280;57917;51.380;-0.176;2023-02-03T16:09:40;102925.50;;;13.48
29701;BMP280;57917;51.380;-0.176;2023-02-03T16:15:27;102929.72;;;13.44
29701;BMP280;57917;51.380;-0.176;2023-02-03T16:33:16;102942.00;;;13.45
29701;BMP280;57917;51.380;-0.176;2023-02-03T16:39:23;102954.09;;;13.24
29701;BMP280;57917;51.380;-0.176;2023-02-03T16:45:31;102977.75;;;13.37
29701;BMP280;57917;51.380;-0.176;2023-02-03T16:51:39;102968.16;;;13.36
29701;BMP280;57917;51.380;-0.176;2023-02-03T16:57:26;102971.66;;;13.37
29701;BMP280;57917;51.380;-0.176;2023-02-03T17:03:16;102979.06;;;13.23
29701;BMP280;57917;51.380;-0.176;2023-02-03T17:09:04;102991.38;;;13.13
29701;BMP280;57917;51.380;-0.176;2023-02-03T17:14:53;102996.22;;;13.16
29701;BMP280;57917;51.380;-0.176;2023-02-03T17:20:44;102987.63;;;12.86
29701;BMP280;57917;51.380;-0.176;2023-02-03T17:26:33;102996.19;;;12.88
29701;BMP280;57917;51.380;-0.176;2023-02-03T17:32:20;102996.19;;;12.88
29701;BMP280;57917;51.380;-0.176;2023-02-03T17:38:08;102991.75;;;13.05
29701;BMP280;57917;51.380;-0.176;2023-02-03T17:43:58;103008.69;;;12.87
29701;BMP280;57917;51.380;-0.176;2023-02-03T17:50:03;103017.31;;;12.94
29701;BMP280;57917;51.380;-0.176;2023-02-03T17:56:10;103026.56;;;12.57
29701;BMP280;57917;51.380;-0.176;2023-02-03T18:02:00;103039.88;;;12.68
29701;BMP280;57917;51.380;-0.176;2023-02-03T18:07:47;103044.00;;;12.64
29701;BMP280;57917;51.380;-0.176;2023-02-03T18:13:44;103052.28;;;12.74
29701;BMP280;57917;51.380;-0.176;2023-02-03T18:20:03;103052.44;;;12.96
29701;BMP280;57917;51.380;-0.176;2023-02-03T18:26:02;103053.16;;;12.68
29701;BMP280;57917;51.380;-0.176;2023-02-03T18:31:50;103051.78;;;12.66
29701;BMP280;57917;51.380;-0.176;2023-02-03T18:37:36;103065.31;;;12.88
29701;BMP280;57917;51.380;-0.176;2023-02-03T18:43:23;103070.59;;;12.64
29701;BMP280;57917;51.380;-0.176;2023-02-03T18:49:10;103090.63;;;12.78
29701;BMP280;57917;51.380;-0.176;2023-02-03T18:54:57;103084.59;;;12.83
29701;BMP280;57917;51.380;-0.176;2023-02-03T19:00:44;103084.84;;;12.70
29701;BMP280;57917;51.380;-0.176;2023-02-03T19:06:34;103083.28;;;12.62
29701;BMP280;57917;51.380;-0.176;2023-02-03T19:12:21;103083.78;;;12.82
29701;BMP280;57917;51.380;-0.176;2023-02-03T19:18:12;103086.91;;;12.79
29701;BMP280;57917;51.380;-0.176;2023-02-03T19:24:04;103089.56;;;12.79
29701;BMP280;57917;51.380;-0.176;2023-02-03T19:29:51;103086.09;;;12.79
29701;BMP280;57917;51.380;-0.176;2023-02-03T19:35:40;103079.41;;;12.76
29701;BMP280;57917;51.380;-0.176;2023-02-03T19:41:30;103084.63;;;12.60
29701;BMP280;57917;51.380;-0.176;2023-02-03T19:47:21;103091.53;;;12.61
29701;BMP280;57917;51.380;-0.176;2023-02-03T19:53:09;103087.50;;;12.29
29701;BMP280;57917;51.380;-0.176;2023-02-03T19:59:05;103092.72;;;12.24
29701;BMP280;57917;51.380;-0.176;2023-02-03T20:05:03;103095.53;;;11.99
29701;BMP280;57917;51.380;-0.176;2023-02-03T20:10:56;103105.34;;;12.10
29701;BMP280;57917;51.380;-0.176;2023-02-03T20:16:44;103097.69;;;11.91
29701;BMP280;57917;51.380;-0.176;2023-02-03T20:22:30;103102.47;;;11.82
29701;BMP280;57917;51.380;-0.176;2023-02-03T20:28:21;103119.00;;;11.66
29701;BMP280;57917;51.380;-0.176;2023-02-03T20:34:10;103111.13;;;11.42
29701;BMP280;57917;51.380;-0.176;2023-02-03T20:40:17;103101.22;;;11.12
29701;BMP280;57917;51.380;-0.176;2023-02-03T20:46:10;103103.88;;;11.30
29701;BMP280;57917;51.380;-0.176;2023-02-03T20:52:04;103114.69;;;11.11
29701;BMP280;57917;51.380;-0.176;2023-02-03T20:58:17;103128.97;;;11.10
29701;BMP280;57917;51.380;-0.176;2023-02-03T21:04:12;103136.66;;;11.18
29701;BMP280;57917;51.380;-0.176;2023-02-03T21:10:23;103147.91;;;10.89
29701;BMP280;57917;51.380;-0.176;2023-02-03T21:16:19;103146.56;;;10.98
29701;BMP280;57917;51.380;-0.176;2023-02-03T21:22:14;103147.59;;;10.79
29701;BMP280;57917;51.380;-0.176;2023-02-03T21:28:03;103162.75;;;10.65
29701;BMP280;57917;51.380;-0.176;2023-02-03T21:34:25;103166.16;;;10.41
29701;BMP280;57917;51.380;-0.176;2023-02-03T21:40:29;103185.69;;;10.47
29701;BMP280;57917;51.380;-0.176;2023-02-03T21:46:23;103180.72;;;10.57
29701;BMP280;57917;51.380;-0.176;2023-02-03T21:52:13;103178.22;;;10.68
29701;BMP280;57917;51.380;-0.176;2023-02-03T22:04:04;103186.84;;;10.57
29701;BMP280;57917;51.380;-0.176;2023-02-03T22:09:52;103186.34;;;10.73
29701;BMP280;57917;51.380;-0.176;2023-02-03T22:15:39;103185.03;;;10.82
29701;BMP280;57917;51.380;-0.176;2023-02-03T22:21:30;103197.25;;;10.83
29701;BMP280;57917;51.380;-0.176;2023-02-03T22:27:17;103201.06;;;10.63
29701;BMP280;57917;51.380;-0.176;2023-02-03T22:33:04;103209.94;;;10.81
29701;BMP280;57917;51.380;-0.176;2023-02-03T22:38:52;103217.66;;;10.83
29701;BMP280;57917;51.380;-0.176;2023-02-03T22:44:39;103217.72;;;10.76
29701;BMP280;57917;51.380;-0.176;2023-02-03T22:50:26;103226.63;;;10.82
29701;BMP280;57917;51.380;-0.176;2023-02-03T22:56:21;103245.69;;;11.03
29701;BMP280;57917;51.380;-0.176;2023-02-03T23:02:10;103236.16;;;11.20
29701;BMP280;57917;51.380;-0.176;2023-02-03T23:07:58;103240.34;;;11.10
29701;BMP280;57917;51.380;-0.176;2023-02-03T23:13:51;103237.66;;;11.16
29701;BMP280;57917;51.380;-0.176;2023-02-03T23:19:39;103243.63;;;11.05
29701;BMP280;57917;51.380;-0.176;2023-02-03T23:25:26;103247.16;;;10.93
29701;BMP280;57917;51.380;-0.176;2023-02-03T23:31:13;103247.88;;;10.75
29701;BMP280;57917;51.380;-0.176;2023-02-03T23:37:03;103251.72;;;10.79
29701;BMP280;57917;51.380;-0.176;2023-02-03T23:42:50;103265.44;;;10.70
29701;BMP280;57917;51.380;-0.176;2023-02-03T23:48:40;103271.28;;;10.85
29701;BMP280;57917;51.380;-0.176;2023-02-03T23:55:06;103264.88;;;10.61
